EFIV

Ivalo Airport

Ivalo, Finland
METAR EFIV 242050Z AUTO 23007KT CAVOK 02/M02 Q1001
Observed Flight Rules
Sep-24 @ 20:50 UTC (34 minutes ago) Visual Flight Rules
Wind Visibility Clouds
230° at 7 knots 10,000+ meters
  • Clear skies
Temperatures Readings
Current 2°C / 36°F
Dewpoint -2°C / 28°F
Humidity 75%
Altimeter 29.56" Hg
Pressure 1001 hPa
Elevation 148
METAR EFIV 242050Z AUTO 23007KT CAVOK 02/M02 Q1001
Observed Flight Rules
Sep-24 @ 20:50 UTC
(34 minutes ago)
VFR
Wind Visibility
230° at 7 knots 10,000+ meters
Clouds
  • Clear skies
Temperature Dewpoint
2°C / 36°F -2°C / 28°F
Humidity Altimeter Pressure
75% 29.56" Hg 1001 hPa